createdAt,value
2018-04-10T00:00:03.883Z,6.40
2018-04-10T00:02:31.578Z,6.77
2018-04-10T00:04:59.273Z,6.20
2018-04-10T00:07:27.717Z,6.73
2018-04-10T00:09:55.412Z,6.67
2018-04-10T00:12:23.125Z,6.53
2018-04-10T00:14:50.780Z,6.30
2018-04-10T00:17:18.470Z,6.00
2018-04-10T00:19:46.100Z,6.60
2018-04-10T00:22:13.790Z,6.33
2018-04-10T00:24:42.220Z,6.73
2018-04-10T00:27:09.900Z,6.70
2018-04-10T00:29:38.335Z,6.50
2018-04-10T00:32:05.959Z,7.33
2018-04-10T00:34:33.624Z,7.07
2018-04-10T00:37:01.240Z,6.70
2018-04-10T00:39:28.883Z,8.07
2018-04-10T00:41:56.524Z,7.13
2018-04-10T00:44:24.144Z,8.23
2018-04-10T00:46:51.793Z,7.97
2018-04-10T00:49:19.414Z,7.40
2018-04-10T00:51:47.062Z,7.93
2018-04-10T00:54:14.679Z,7.57
2018-04-10T00:56:43.083Z,8.80
2018-04-10T00:59:11.512Z,8.13
2018-04-10T01:01:39.136Z,7.87
2018-04-10T01:04:06.773Z,7.67
2018-04-10T01:06:34.456Z,8.93
2018-04-10T01:09:02.876Z,8.97
2018-04-10T01:11:30.529Z,9.00
2018-04-10T01:13:58.943Z,7.93
2018-04-10T01:16:27.369Z,8.60
2018-04-10T01:18:55.075Z,9.13
2018-04-10T01:21:22.729Z,7.67
2018-04-10T01:23:51.166Z,8.77
2018-04-10T01:26:18.780Z,8.60
2018-04-10T01:28:46.420Z,8.30
2018-04-10T01:31:14.097Z,8.47
2018-04-10T01:33:41.780Z,7.87
2018-04-10T01:36:09.436Z,8.03
2018-04-10T01:38:37.058Z,8.20
2018-04-10T01:41:04.700Z,8.23
2018-04-10T01:43:32.340Z,8.40
2018-04-10T01:45:59.985Z,8.40
2018-04-10T01:48:29.115Z,8.20
2018-04-10T01:50:57.513Z,8.63
2018-04-10T01:53:25.168Z,9.30
2018-04-10T01:55:52.825Z,8.63
2018-04-10T01:58:20.432Z,8.30
2018-04-10T02:00:48.120Z,8.03
2018-04-10T02:03:15.727Z,7.67
2018-04-10T02:05:43.380Z,8.43
2018-04-10T02:08:10.985Z,7.73
2018-04-10T02:10:54.208Z,8.43
2018-04-10T02:13:21.845Z,8.53
2018-04-10T02:15:49.488Z,8.23
2018-04-10T02:18:17.192Z,8.00
2018-04-10T02:20:45.600Z,8.97
2018-04-10T02:23:13.289Z,9.17
2018-04-10T02:25:40.924Z,9.33
2018-04-10T02:28:09.391Z,9.00
2018-04-10T02:30:37.837Z,10.37
2018-04-10T02:33:06.268Z,10.63
2018-04-10T02:35:33.948Z,10.33
2018-04-10T02:38:01.608Z,9.77
2018-04-10T02:40:29.253Z,10.10
2018-04-10T02:42:56.885Z,10.07
2018-04-10T02:45:25.308Z,10.13
2018-04-10T02:47:53.013Z,10.63
2018-04-10T02:50:20.680Z,10.47
2018-04-10T02:52:48.351Z,10.67
2018-04-10T02:55:16.786Z,10.30
2018-04-10T02:57:44.430Z,9.77
2018-04-10T03:00:12.101Z,10.57
2018-04-10T03:02:39.806Z,9.87
2018-04-10T03:05:07.408Z,9.90
2018-04-10T03:07:35.853Z,9.47
2018-04-10T03:10:03.617Z,9.40
2018-04-10T03:12:32.041Z,9.87
2018-04-10T03:14:59.672Z,9.20
2018-04-10T03:17:27.291Z,10.60
2018-04-10T03:19:55.761Z,11.00
2018-04-10T03:22:23.448Z,9.70
2018-04-10T03:24:51.105Z,10.27
2018-04-10T03:27:18.832Z,10.40
2018-04-10T03:29:46.483Z,10.57
2018-04-10T03:35:20.534Z,10.30
2018-04-10T03:37:48.204Z,10.00
2018-04-10T03:40:15.862Z,10.37
2018-04-10T03:42:43.502Z,9.87
2018-04-10T03:45:11.168Z,10.37
2018-04-10T03:47:38.785Z,11.27
2018-04-10T03:50:06.500Z,10.87
2018-04-10T03:52:34.194Z,10.70
2018-04-10T03:55:01.821Z,11.10
2018-04-10T03:57:29.519Z,11.73
2018-04-10T03:59:57.165Z,10.97
2018-04-10T04:02:24.936Z,11.50
2018-04-10T04:04:53.485Z,11.60
2018-04-10T04:07:21.119Z,10.87
2018-04-10T04:09:49.556Z,10.63
2018-04-10T04:12:17.180Z,10.90
2018-04-10T04:14:44.840Z,11.40
2018-04-10T04:17:36.266Z,11.23
2018-04-10T04:20:16.654Z,10.33
2018-04-10T04:22:44.351Z,10.47
2018-04-10T04:25:12.770Z,11.27
2018-04-10T04:27:40.448Z,10.63
2018-04-10T04:30:08.096Z,12.07
2018-04-10T04:32:36.545Z,11.50
2018-04-10T04:35:04.165Z,12.07
2018-04-10T04:37:31.844Z,12.30
2018-04-10T04:39:59.465Z,12.73
2018-04-10T04:42:27.120Z,13.03
2018-04-10T04:44:54.791Z,12.13
2018-04-10T04:47:22.493Z,12.13
2018-04-10T04:49:50.116Z,12.30
2018-04-10T04:52:17.809Z,12.13
2018-04-10T04:54:45.454Z,12.00
2018-04-10T04:57:13.081Z,12.67
2018-04-10T04:59:41.553Z,13.27
2018-04-10T05:02:09.186Z,13.77
2018-04-10T05:04:37.624Z,15.10
2018-04-10T05:07:05.238Z,15.80
2018-04-10T05:09:32.904Z,14.50
2018-04-10T05:12:00.563Z,15.37
2018-04-10T05:14:28.940Z,15.57
2018-04-10T05:16:56.577Z,15.60
2018-04-10T05:19:24.215Z,15.17
2018-04-10T05:21:51.853Z,15.77
2018-04-10T05:24:19.504Z,15.07
2018-04-10T05:26:47.894Z,13.80
2018-04-10T05:29:15.553Z,14.23
2018-04-10T05:31:43.193Z,15.23
2018-04-10T05:34:11.642Z,14.40
2018-04-10T05:36:39.325Z,13.27
2018-04-10T05:39:06.982Z,11.47
2018-04-10T05:41:35.425Z,12.07
2018-04-10T05:44:03.064Z,12.23
2018-04-10T05:46:30.696Z,11.47
2018-04-10T05:48:58.388Z,10.83
2018-04-10T05:51:26.032Z,10.50
2018-04-10T05:53:54.425Z,11.57
2018-04-10T05:56:22.053Z,11.33
2018-04-10T05:58:49.729Z,12.80
2018-04-10T06:01:17.398Z,13.33
2018-04-10T06:03:45.813Z,13.50
2018-04-10T06:06:13.459Z,15.03
2018-04-10T06:08:41.108Z,15.63
2018-04-10T06:11:08.761Z,14.77
2018-04-10T06:13:37.173Z,14.40
2018-04-10T06:16:05.597Z,13.30
2018-04-10T06:18:33.225Z,11.43
2018-04-10T06:21:00.900Z,14.70
2018-04-10T06:23:28.545Z,14.67
2018-04-10T06:25:56.200Z,15.13
2018-04-10T06:28:23.856Z,14.70
2018-04-10T06:30:51.492Z,14.53
2018-04-10T06:33:19.901Z,15.40
2018-04-10T06:35:48.292Z,16.23
2018-04-10T06:38:16.728Z,16.77
2018-04-10T06:40:44.351Z,16.87
2018-04-10T06:43:11.981Z,18.23
2018-04-10T06:45:40.417Z,17.10
2018-04-10T06:48:08.040Z,17.73
2018-04-10T06:50:35.714Z,17.70
2018-04-10T06:53:03.364Z,18.53
2018-04-10T06:55:31.000Z,18.27
2018-04-10T06:57:58.661Z,18.03
2018-04-10T07:00:26.301Z,18.73
2018-04-10T07:02:54.768Z,18.53
2018-04-10T07:05:22.414Z,17.77
2018-04-10T07:07:50.048Z,18.93
2018-04-10T07:10:17.716Z,17.87
2018-04-10T07:12:45.357Z,18.30
2018-04-10T07:15:12.992Z,18.43
2018-04-10T07:17:40.636Z,18.93
2018-04-10T07:20:08.306Z,19.40
2018-04-10T07:22:36.756Z,19.30
2018-04-10T07:25:04.381Z,19.10
2018-04-10T07:27:32.025Z,18.57
2018-04-10T07:29:59.677Z,18.07
2018-04-10T07:32:28.078Z,18.83
2018-04-10T07:34:56.502Z,19.37
2018-04-10T07:37:24.127Z,19.10
2018-04-10T07:39:51.788Z,18.83
2018-04-10T07:42:19.448Z,19.27
2018-04-10T07:44:47.833Z,18.83
2018-04-10T07:47:15.557Z,18.97
2018-04-10T07:49:43.285Z,18.57
2018-04-10T07:52:10.947Z,17.53
2018-04-10T07:54:39.348Z,18.00
2018-04-10T07:57:06.984Z,18.60
2018-04-10T07:59:34.641Z,19.43
2018-04-10T08:02:02.292Z,18.20
2018-04-10T08:04:31.257Z,17.70
2018-04-10T08:06:58.876Z,17.87
2018-04-10T08:09:26.522Z,17.77
2018-04-10T08:11:54.949Z,17.83
2018-04-10T08:14:22.604Z,18.73
2018-04-10T08:16:51.005Z,18.30
2018-04-10T08:19:18.668Z,18.30
2018-04-10T08:21:46.304Z,18.43
2018-04-10T08:24:13.973Z,17.57
2018-04-10T08:26:41.645Z,19.13
2018-04-10T08:29:09.278Z,18.67
2018-04-10T08:31:36.946Z,18.27
2018-04-10T08:34:04.616Z,18.40
2018-04-10T08:36:32.295Z,19.27
2018-04-10T08:38:59.950Z,18.87
2018-04-10T08:41:27.568Z,18.73
2018-04-10T08:43:55.229Z,19.90
2018-04-10T08:46:22.894Z,19.20
2018-04-10T08:48:50.548Z,18.07
2018-04-10T08:51:18.185Z,18.13
2018-04-10T08:53:45.816Z,18.73
2018-04-10T08:56:14.285Z,18.80
2018-04-10T08:58:41.956Z,19.43
2018-04-10T09:01:09.598Z,17.93
2018-04-10T09:03:38.029Z,18.27
2018-04-10T09:06:05.664Z,19.20
2018-04-10T09:08:33.357Z,18.73
2018-04-10T09:11:01.025Z,18.53
2018-04-10T09:13:28.653Z,18.53
2018-04-10T09:15:57.089Z,18.40
2018-04-10T09:18:24.721Z,20.40
2018-04-10T09:20:52.390Z,17.63
2018-04-10T09:23:20.051Z,19.33
2018-04-10T09:25:47.679Z,18.17
2018-04-10T09:28:15.321Z,19.73
2018-04-10T09:30:42.977Z,19.50
2018-04-10T09:33:11.401Z,19.33
2018-04-10T09:35:39.080Z,19.40
2018-04-10T09:38:06.713Z,20.07
2018-04-10T09:40:34.375Z,17.40
2018-04-10T09:43:01.991Z,19.00
2018-04-10T09:45:29.667Z,18.13
2018-04-10T09:47:57.353Z,18.07
2018-04-10T09:50:24.997Z,19.17
2018-04-10T09:52:53.425Z,18.77
2018-04-10T09:55:21.044Z,18.70
2018-04-10T09:57:48.685Z,20.13
2018-04-10T10:00:16.403Z,18.07
2018-04-10T10:02:44.016Z,18.83
2018-04-10T10:05:11.676Z,18.03
2018-04-10T10:07:39.341Z,17.73
2018-04-10T10:10:07.046Z,17.37
2018-04-10T10:12:34.761Z,18.60
2018-04-10T10:15:02.409Z,18.10
2018-04-10T10:17:30.097Z,18.27
2018-04-10T10:19:57.756Z,17.53
2018-04-10T10:22:26.199Z,17.43
2018-04-10T10:24:53.866Z,19.43
2018-04-10T10:27:21.514Z,18.60
2018-04-10T10:29:49.969Z,18.63
2018-04-10T10:32:17.616Z,17.50
2018-04-10T10:34:46.051Z,16.37
2018-04-10T10:37:13.741Z,17.40
2018-04-10T10:39:41.374Z,16.70
2018-04-10T10:42:09.055Z,17.47
2018-04-10T10:44:36.722Z,16.77
2018-04-10T10:47:04.384Z,17.70
2018-04-10T10:49:32.106Z,17.10
2018-04-10T10:51:59.728Z,19.67
2018-04-10T10:54:28.169Z,19.13
2018-04-10T10:56:55.796Z,18.53
2018-04-10T10:59:23.473Z,18.83
2018-04-10T11:01:51.137Z,19.40
2018-04-10T11:04:18.754Z,19.47
2018-04-10T11:06:46.421Z,19.37
2018-04-10T11:09:14.077Z,17.80
2018-04-10T11:11:41.920Z,17.97
2018-04-10T11:14:09.661Z,18.03
2018-04-10T11:16:37.298Z,18.73
2018-04-10T11:19:04.967Z,19.03
2018-04-10T11:21:32.596Z,18.87
2018-04-10T11:24:01.034Z,18.63
2018-04-10T11:26:28.697Z,18.37
2018-04-10T11:28:56.305Z,17.30
2018-04-10T11:31:23.985Z,17.33
2018-04-10T11:33:51.641Z,17.27
2018-04-10T11:36:20.076Z,16.70
2018-04-10T11:38:47.749Z,15.47
2018-04-10T11:41:15.395Z,16.83
2018-04-10T11:43:43.085Z,15.50
2018-04-10T11:46:10.745Z,15.83
2018-04-10T11:48:38.438Z,16.00
2018-04-10T11:51:06.093Z,15.53
2018-04-10T11:53:33.769Z,14.03
2018-04-10T11:56:01.465Z,14.43
2018-04-10T11:58:29.116Z,13.20
2018-04-10T12:00:57.622Z,15.23
2018-04-10T12:03:25.266Z,13.50
2018-04-10T12:05:52.936Z,15.10
2018-04-10T12:08:20.609Z,18.57
2018-04-10T12:10:48.212Z,19.53
2018-04-10T12:13:15.877Z,18.77
2018-04-10T12:15:44.299Z,18.63
2018-04-10T12:18:12.733Z,18.10
2018-04-10T12:20:40.390Z,19.87
2018-04-10T12:23:08.021Z,18.40
2018-04-10T12:25:35.699Z,17.33
2018-04-10T12:28:03.340Z,18.13
2018-04-10T12:30:31.780Z,17.93
2018-04-10T12:32:59.432Z,17.53
2018-04-10T12:35:27.821Z,17.83
2018-04-10T12:37:55.505Z,17.83
2018-04-10T12:40:23.126Z,17.30
2018-04-10T12:42:50.775Z,18.37
2018-04-10T12:45:18.464Z,18.33
2018-04-10T12:47:46.148Z,16.90
2018-04-10T12:50:13.826Z,18.03
2018-04-10T12:52:41.469Z,17.77
2018-04-10T12:55:09.163Z,17.37
2018-04-10T12:57:36.851Z,18.37
2018-04-10T13:00:04.489Z,17.63
2018-04-10T13:02:32.143Z,19.60
2018-04-10T13:04:59.780Z,19.43
2018-04-10T13:07:28.241Z,19.17
2018-04-10T13:09:55.885Z,19.13
2018-04-10T13:12:23.583Z,19.00
2018-04-10T13:21:01.268Z,18.97
2018-04-10T13:23:29.627Z,16.93
2018-04-10T13:25:57.289Z,18.60
2018-04-10T13:28:25.712Z,20.10
2018-04-10T13:30:53.353Z,20.83
2018-04-10T13:33:21.018Z,20.50
2018-04-10T13:35:48.744Z,18.97
2018-04-10T13:38:16.418Z,19.17
2018-04-10T13:40:44.818Z,17.97
2018-04-10T13:43:12.476Z,19.07
2018-04-10T13:45:40.255Z,18.90
2018-04-10T13:48:07.900Z,19.90
2018-04-10T13:50:35.587Z,17.93
2018-04-10T13:53:03.245Z,19.00
2018-04-10T13:55:30.892Z,19.17
2018-04-10T13:57:58.569Z,19.53
2018-04-10T14:00:26.956Z,19.87
2018-04-10T14:02:54.638Z,19.57
2018-04-10T14:05:22.278Z,18.13
2018-04-10T14:07:49.977Z,18.90
2018-04-10T14:10:17.712Z,19.73
2018-04-10T14:12:45.339Z,19.20
2018-04-10T14:15:13.036Z,20.70
2018-04-10T14:17:40.703Z,19.57
2018-04-10T14:20:08.337Z,19.90
2018-04-10T14:22:36.006Z,20.97
2018-04-10T14:25:03.693Z,20.40
2018-04-10T14:27:31.384Z,20.70
2018-04-10T14:29:59.102Z,19.03
2018-04-10T14:32:26.808Z,20.30
2018-04-10T14:34:55.551Z,20.07
2018-04-10T14:37:23.261Z,21.47
2018-04-10T14:39:51.111Z,21.17
2018-04-10T14:42:18.911Z,20.90
2018-04-10T14:44:46.534Z,20.53
2018-04-10T14:47:14.189Z,20.87
2018-04-10T14:49:41.817Z,20.13
2018-04-10T14:52:09.517Z,20.90
2018-04-10T14:54:37.181Z,20.67
2018-04-10T14:57:04.796Z,19.37
2018-04-10T14:59:32.433Z,19.77
2018-04-10T15:02:00.045Z,20.43
2018-04-10T15:04:27.692Z,20.33
2018-04-10T15:06:55.336Z,20.97
2018-04-10T15:09:22.979Z,20.17
2018-04-10T15:11:50.677Z,20.07
2018-04-10T15:14:18.306Z,19.70
2018-04-10T15:16:46.116Z,19.80
2018-04-10T15:19:14.546Z,19.70
2018-04-10T15:21:42.146Z,18.90
2018-04-10T15:24:09.809Z,20.73
2018-04-10T15:26:37.525Z,19.33
2018-04-10T15:29:05.193Z,17.77
2018-04-10T15:31:32.826Z,18.47
2018-04-10T15:34:00.460Z,18.07
2018-04-10T15:36:28.117Z,19.37
2018-04-10T15:38:56.513Z,18.83
2018-04-10T15:41:24.165Z,19.63
2018-04-10T15:43:51.849Z,17.40
2018-04-10T15:46:19.485Z,17.87
2018-04-10T15:48:47.918Z,19.53
2018-04-10T15:51:15.557Z,19.33
2018-04-10T15:53:43.976Z,18.97
2018-04-10T15:56:11.651Z,18.40
2018-04-10T15:58:39.286Z,18.47
2018-04-10T16:01:06.946Z,17.27
2018-04-10T16:03:37.426Z,18.13
2018-04-10T16:06:05.105Z,20.00
2018-04-10T16:08:33.560Z,18.63
2018-04-10T16:11:01.188Z,17.97
2018-04-10T16:13:28.834Z,16.67
2018-04-10T16:15:56.466Z,16.43
2018-04-10T16:18:24.928Z,15.83
2018-04-10T16:20:52.621Z,14.87
2018-04-10T16:23:20.248Z,18.10
2018-04-10T16:25:48.685Z,16.73
2018-04-10T16:28:16.342Z,15.27
2018-04-10T16:30:44.779Z,17.93
2018-04-10T16:33:13.309Z,16.97
2018-04-10T16:35:41.729Z,15.93
2018-04-10T16:38:09.393Z,16.23
2018-04-10T16:40:37.037Z,17.17
2018-04-10T16:43:05.469Z,17.37
2018-04-10T16:45:33.105Z,17.97
2018-04-10T16:48:01.084Z,18.50
2018-04-10T16:50:28.808Z,18.13
2018-04-10T16:52:57.236Z,19.20
2018-04-10T16:55:24.957Z,18.60
2018-04-10T16:57:52.597Z,17.27
2018-04-10T17:00:21.025Z,18.03
2018-04-10T17:02:48.633Z,17.03
2018-04-10T17:05:16.293Z,16.43
2018-04-10T17:07:43.967Z,17.13
2018-04-10T17:10:11.602Z,15.70
2018-04-10T17:12:39.331Z,15.50
2018-04-10T17:15:12.013Z,15.73
2018-04-10T17:17:53.043Z,15.33
2018-04-10T17:23:17.095Z,16.00
2018-04-10T17:25:49.835Z,16.07
2018-04-10T17:28:17.510Z,15.47
2018-04-10T17:30:45.205Z,15.87
2018-04-10T17:33:12.865Z,16.33
2018-04-10T17:35:40.524Z,16.53
2018-04-10T17:38:08.157Z,16.77
2018-04-10T17:40:35.853Z,17.27
2018-04-10T17:43:03.564Z,16.43
2018-04-10T17:45:31.209Z,16.57
2018-04-10T17:47:58.858Z,15.63
2018-04-10T17:50:26.496Z,14.47
2018-04-10T17:52:54.205Z,14.13
2018-04-10T17:55:21.855Z,15.87
2018-04-10T17:57:49.503Z,15.57
2018-04-10T18:00:17.162Z,15.90
2018-04-10T18:02:44.804Z,15.33
2018-04-10T18:05:13.261Z,14.70
2018-04-10T18:07:40.921Z,13.30
2018-04-10T18:10:08.549Z,13.73
2018-04-10T18:12:36.229Z,12.43
2018-04-10T18:15:03.916Z,12.53
2018-04-10T18:17:31.592Z,12.47
2018-04-10T18:19:59.227Z,11.70
2018-04-10T18:22:26.935Z,11.80
2018-04-10T18:24:55.378Z,10.73
2018-04-10T18:27:22.997Z,11.00
2018-04-10T18:29:50.661Z,10.80
2018-04-10T18:32:18.288Z,10.43
2018-04-10T18:34:45.928Z,10.40
2018-04-10T18:37:13.552Z,9.43
2018-04-10T18:39:41.177Z,9.63
2018-04-10T18:42:09.575Z,8.90
2018-04-10T18:44:38.036Z,8.70
2018-04-10T18:47:05.680Z,9.20
2018-04-10T18:49:33.289Z,8.90
2018-04-10T18:52:00.948Z,8.97
2018-04-10T18:54:29.376Z,8.33
2018-04-10T18:56:57.060Z,8.53
2018-04-10T19:05:16.068Z,8.93
2018-04-10T19:07:43.681Z,9.40
2018-04-10T19:10:11.285Z,9.23
2018-04-10T19:12:38.967Z,11.33
2018-04-10T19:15:06.606Z,10.70
2018-04-10T19:17:34.260Z,10.07
2018-04-10T19:20:01.908Z,10.63
2018-04-10T19:22:29.688Z,7.97
2018-04-10T19:24:57.381Z,5.77
2018-04-10T19:27:25.025Z,4.77
2018-04-10T19:29:52.668Z,4.10
2018-04-10T19:32:20.293Z,4.13
2018-04-10T19:34:59.257Z,4.33
2018-04-10T19:37:26.877Z,4.07
2018-04-10T19:39:54.532Z,4.03
2018-04-10T19:42:23.898Z,3.60
2018-04-10T19:44:51.557Z,3.57
2018-04-10T19:47:19.202Z,3.67
2018-04-10T19:49:47.316Z,3.40
2018-04-10T19:52:15.390Z,3.50
2018-04-10T19:54:43.128Z,3.00
2018-04-10T19:57:11.627Z,3.37
2018-04-10T19:59:40.722Z,3.23
2018-04-10T20:02:09.559Z,3.33
2018-04-10T20:04:37.328Z,3.00
2018-04-10T20:07:06.412Z,3.07
2018-04-10T20:09:34.211Z,2.97
2018-04-10T20:12:01.885Z,2.60
2018-04-10T20:14:29.649Z,2.30
2018-04-10T20:16:58.142Z,2.70
2018-04-10T20:19:32.212Z,2.70
2018-04-10T20:21:59.860Z,2.30
2018-04-10T20:24:28.276Z,2.20
2018-04-10T20:26:56.649Z,2.50
2018-04-10T20:29:24.321Z,2.53
2018-04-10T20:31:51.987Z,2.30
2018-04-10T20:34:19.659Z,2.60
2018-04-10T20:36:47.347Z,2.40
2018-04-10T20:39:15.779Z,2.27
2018-04-10T20:41:43.437Z,2.00
2018-04-10T20:44:12.153Z,2.50
2018-04-10T20:46:39.817Z,2.40
2018-04-10T20:49:07.514Z,2.30
2018-04-10T20:51:36.053Z,2.80
2018-04-10T20:54:03.696Z,2.43
2018-04-10T20:56:31.296Z,2.70
2018-04-10T20:58:59.690Z,3.07
2018-04-10T21:01:27.540Z,3.27
2018-04-10T21:03:55.257Z,3.37
2018-04-10T21:06:22.888Z,3.10
2018-04-10T21:08:51.345Z,3.23
2018-04-10T21:11:19.727Z,3.50
2018-04-10T21:13:47.392Z,4.07
2018-04-10T21:16:15.757Z,3.87
2018-04-10T21:18:43.445Z,4.47
2018-04-10T21:21:11.869Z,4.20
2018-04-10T21:23:39.653Z,4.70
2018-04-10T21:26:07.291Z,4.90
2018-04-10T21:28:34.916Z,4.43
2018-04-10T21:31:02.540Z,4.80
2018-04-10T21:33:30.188Z,4.17
2018-04-10T21:35:57.812Z,4.37
2018-04-10T21:38:25.416Z,4.20
2018-04-10T21:40:53.820Z,3.97
2018-04-10T21:43:30.344Z,3.97
2018-04-10T21:45:57.997Z,3.87
2018-04-10T21:48:26.421Z,3.77
2018-04-10T21:50:54.162Z,3.80
2018-04-10T21:53:21.801Z,3.93
2018-04-10T21:55:49.431Z,4.13
2018-04-10T21:58:17.131Z,4.13
2018-04-10T22:00:44.988Z,4.20
2018-04-10T22:03:12.937Z,4.10
2018-04-10T22:05:41.370Z,4.23
2018-04-10T22:08:09.002Z,4.60
2018-04-10T22:10:37.481Z,4.00
2018-04-10T22:13:05.140Z,4.70
2018-04-10T22:15:32.790Z,4.57
2018-04-10T22:18:01.231Z,4.83
2018-04-10T22:20:28.858Z,4.60
2018-04-10T22:22:56.502Z,4.70
2018-04-10T22:25:24.156Z,4.97
2018-04-10T22:27:52.549Z,4.83
2018-04-10T22:30:20.215Z,4.67
2018-04-10T22:32:47.798Z,4.80
2018-04-10T22:35:16.244Z,4.70
2018-04-10T22:37:43.869Z,4.67
2018-04-10T22:40:30.494Z,5.13
2018-04-10T22:42:58.152Z,5.53
2018-04-10T22:45:25.814Z,4.73
2018-04-10T22:47:54.204Z,4.97
2018-04-10T22:50:22.597Z,5.37
2018-04-10T22:52:50.256Z,4.80
2018-04-10T22:55:17.940Z,5.53
2018-04-10T22:57:45.569Z,5.13
2018-04-10T23:00:13.277Z,5.33
2018-04-10T23:02:40.910Z,5.83
2018-04-10T23:05:09.358Z,6.50
2018-04-10T23:07:37.757Z,7.10
2018-04-10T23:10:05.381Z,6.27
2018-04-10T23:12:33.054Z,6.13
2018-04-10T23:15:01.469Z,5.13
2018-04-10T23:17:29.876Z,6.07
2018-04-10T23:19:58.319Z,5.90
2018-04-10T23:22:25.988Z,6.50
2018-04-10T23:24:53.653Z,7.07
2018-04-10T23:27:22.077Z,7.30
2018-04-10T23:29:49.749Z,7.23
2018-04-10T23:32:18.178Z,7.07
2018-04-10T23:34:45.799Z,7.43
2018-04-10T23:37:13.471Z,7.33
2018-04-10T23:39:41.061Z,7.47
2018-04-10T23:42:08.701Z,6.77
2018-04-10T23:44:36.383Z,7.40
2018-04-10T23:47:04.013Z,7.73
2018-04-10T23:49:31.665Z,6.90
2018-04-10T23:52:00.031Z,7.80
2018-04-10T23:54:27.687Z,7.07
2018-04-10T23:56:55.345Z,7.50
2018-04-10T23:59:23.753Z,7.07
